Terminal Aerodrome Forecast
Issued by NWS

Home | Current Version | Previous Version | Text Only | Print | Product List | Glossary On
Versions: 1 2 3 4 5 6 7 8 9 10 11 12 13 14 15 16 17 18 19
000
FTUS44 KMOB 230536
TAFBFM
TAF
KBFM 230536Z 2306/2406 27010G17KT P6SM VCSH FEW025 SCT040 BKN100
     FM230800 29017G25KT P6SM VCSH BKN025
     FM231500 31017G25KT P6SM SCT025
     FM232300 30009KT P6SM SKC=

USA.gov is the U.S. government's official web portal to all federal, state and local government web resources and services.